createdAt,value
2023-05-23T00:01:47.477Z,10.73
2023-05-23T00:04:20.303Z,10.00
2023-05-23T00:06:50.649Z,10.50
2023-05-23T00:09:19.413Z,11.33
2023-05-23T00:11:49.971Z,11.87
2023-05-23T00:14:18.445Z,12.63
2023-05-23T00:16:49.663Z,11.90
2023-05-23T00:19:18.263Z,11.37
2023-05-23T00:21:50.906Z,10.83
2023-05-23T00:24:20.555Z,13.23
2023-05-23T00:26:49.143Z,11.03
2023-05-23T00:29:17.821Z,11.03
2023-05-23T00:31:47.462Z,12.13
2023-05-23T00:34:17.917Z,11.27
2023-05-23T00:36:50.343Z,10.80
2023-05-23T00:39:21.401Z,11.20
2023-05-23T00:41:54.403Z,12.43
2023-05-23T00:44:23.075Z,12.07
2023-05-23T00:46:56.164Z,11.47
2023-05-23T00:49:25.040Z,12.57
2023-05-23T00:51:53.851Z,11.20
2023-05-23T00:54:28.580Z,11.57
2023-05-23T00:56:57.308Z,12.97
2023-05-23T00:59:27.439Z,11.73
2023-05-23T01:01:58.608Z,11.93
2023-05-23T01:04:28.469Z,11.20
2023-05-23T01:07:00.777Z,11.20
2023-05-23T01:09:31.309Z,11.43
2023-05-23T01:12:14.560Z,11.27
2023-05-23T01:14:49.295Z,11.60
2023-05-23T01:17:28.222Z,12.00
2023-05-23T01:20:02.296Z,11.00
2023-05-23T01:23:01.112Z,11.40
2023-05-23T01:25:50.398Z,11.93
2023-05-23T01:28:23.648Z,11.47
2023-05-23T01:30:57.866Z,11.50
2023-05-23T01:33:27.320Z,12.17
2023-05-23T01:35:57.896Z,11.27
2023-05-23T01:38:26.285Z,11.70
2023-05-23T01:40:55.363Z,11.83
2023-05-23T01:43:26.648Z,11.83
2023-05-23T01:45:56.691Z,11.60
2023-05-23T01:48:27.391Z,12.30
2023-05-23T01:50:56.731Z,12.17
2023-05-23T01:53:25.637Z,12.10
2023-05-23T01:55:54.442Z,12.47
2023-05-23T01:58:24.336Z,11.90
2023-05-23T02:00:52.815Z,12.23
2023-05-23T02:03:21.453Z,11.93
2023-05-23T02:05:49.948Z,12.00
2023-05-23T02:08:18.387Z,12.03
2023-05-23T02:10:46.816Z,11.87
2023-05-23T02:13:15.186Z,12.37
2023-05-23T02:15:44.979Z,12.00
2023-05-23T02:18:13.347Z,12.43
2023-05-23T02:20:41.807Z,12.60
2023-05-23T02:23:10.830Z,12.63
2023-05-23T02:25:39.494Z,12.03
2023-05-23T02:28:07.980Z,12.60
2023-05-23T02:30:41.524Z,12.73
2023-05-23T02:33:11.301Z,12.73
2023-05-23T02:35:39.904Z,12.77
2023-05-23T02:38:08.378Z,12.77
2023-05-23T02:40:36.744Z,13.13
2023-05-23T02:43:05.096Z,12.33
2023-05-23T02:45:33.401Z,13.20
2023-05-23T02:48:01.812Z,12.07
2023-05-23T02:50:34.808Z,14.40
2023-05-23T02:53:03.832Z,13.07
2023-05-23T02:55:32.463Z,11.73
2023-05-23T02:58:00.841Z,11.83
2023-05-23T03:00:29.341Z,11.43
2023-05-23T03:02:57.788Z,12.80
2023-05-23T03:05:26.123Z,12.87
2023-05-23T03:07:55.825Z,11.90
2023-05-23T03:10:24.223Z,12.43
2023-05-23T03:12:52.506Z,13.53
2023-05-23T03:15:21.269Z,12.47
2023-05-23T03:17:49.650Z,11.60
2023-05-23T03:20:18.027Z,11.43
2023-05-23T03:22:46.325Z,12.37
2023-05-23T03:25:17.321Z,12.60
2023-05-23T03:27:48.464Z,12.73
2023-05-23T03:30:17.046Z,12.83
2023-05-23T03:32:45.422Z,11.97
2023-05-23T03:35:13.877Z,12.30
2023-05-23T03:37:42.313Z,12.67
2023-05-23T03:40:11.731Z,12.53
2023-05-23T03:42:41.869Z,13.03
2023-05-23T03:45:10.236Z,12.00
2023-05-23T03:47:38.654Z,11.40
2023-05-23T03:50:10.946Z,12.93
2023-05-23T03:52:39.277Z,12.87
2023-05-23T03:55:12.031Z,12.47
2023-05-23T03:57:41.764Z,13.33
2023-05-23T04:00:12.337Z,14.30
2023-05-23T04:02:40.863Z,12.73
2023-05-23T04:05:10.246Z,12.40
2023-05-23T04:07:38.753Z,11.67
2023-05-23T04:10:08.982Z,12.63
2023-05-23T04:12:41.772Z,12.70
2023-05-23T04:15:11.411Z,12.83
2023-05-23T04:17:39.823Z,12.73
2023-05-23T04:20:10.969Z,13.20
2023-05-23T04:22:39.255Z,14.00
2023-05-23T04:25:09.519Z,13.70
2023-05-23T04:27:40.381Z,12.50
2023-05-23T04:30:11.765Z,13.17
2023-05-23T04:32:40.215Z,11.93
2023-05-23T04:35:12.907Z,12.63
2023-05-23T04:37:42.660Z,12.57
2023-05-23T04:40:13.581Z,13.07
2023-05-23T04:42:44.680Z,14.20
2023-05-23T04:45:17.768Z,13.07
2023-05-23T04:47:46.677Z,12.13
2023-05-23T04:50:18.631Z,11.97
2023-05-23T04:52:46.995Z,12.23
2023-05-23T04:55:17.619Z,13.27
2023-05-23T04:57:46.150Z,12.60
2023-05-23T05:00:17.292Z,12.27
2023-05-23T05:02:45.725Z,12.57
2023-05-23T05:05:14.077Z,11.77
2023-05-23T05:07:42.444Z,11.87
2023-05-23T05:10:16.876Z,11.73
2023-05-23T05:12:46.862Z,12.57
2023-05-23T05:15:18.439Z,11.80
2023-05-23T05:17:49.711Z,12.57
2023-05-23T05:20:18.430Z,12.57
2023-05-23T05:22:47.676Z,11.97
2023-05-23T05:25:16.036Z,11.40
2023-05-23T05:27:44.733Z,12.80
2023-05-23T05:30:14.995Z,11.57
2023-05-23T05:32:46.544Z,13.10
2023-05-23T05:35:15.191Z,12.53
2023-05-23T05:37:43.611Z,12.63
2023-05-23T05:40:12.644Z,14.23
2023-05-23T05:42:40.995Z,13.37
2023-05-23T05:45:11.506Z,14.70
2023-05-23T05:47:39.941Z,13.33
2023-05-23T05:50:11.011Z,13.33
2023-05-23T05:52:40.081Z,13.40
2023-05-23T05:55:11.424Z,13.60
2023-05-23T05:57:40.112Z,12.90
2023-05-23T06:00:13.605Z,13.03
2023-05-23T06:02:43.250Z,13.33
2023-05-23T06:05:14.064Z,13.10
2023-05-23T06:07:42.621Z,13.40
2023-05-23T06:10:13.124Z,14.17
2023-05-23T06:12:41.744Z,13.83
2023-05-23T06:15:11.207Z,13.70
2023-05-23T06:17:39.610Z,13.80
2023-05-23T06:20:09.333Z,15.17
2023-05-23T06:22:39.173Z,15.63
2023-05-23T06:25:09.171Z,15.13
2023-05-23T06:27:38.166Z,14.60
2023-05-23T06:30:08.101Z,14.77
2023-05-23T06:32:36.770Z,15.37
2023-05-23T06:35:05.872Z,16.03
2023-05-23T06:37:34.479Z,16.37
2023-05-23T06:40:05.575Z,14.50
2023-05-23T06:42:33.949Z,16.20
2023-05-23T06:45:02.337Z,15.67
2023-05-23T06:47:33.135Z,15.13
2023-05-23T06:50:01.509Z,16.07
2023-05-23T06:52:29.802Z,16.17
2023-05-23T06:54:58.129Z,15.23
2023-05-23T06:57:27.945Z,15.77
2023-05-23T06:59:56.271Z,15.90
2023-05-23T07:02:24.701Z,16.00
2023-05-23T07:04:58.724Z,16.33
2023-05-23T07:07:27.061Z,15.93
2023-05-23T07:09:55.506Z,16.40
2023-05-23T07:12:23.913Z,15.97
2023-05-23T07:14:53.639Z,15.70
2023-05-23T07:17:22.574Z,14.23
2023-05-23T07:19:50.977Z,13.50
2023-05-23T07:22:19.298Z,15.50
2023-05-23T07:24:47.696Z,14.30
2023-05-23T07:27:16.094Z,13.87
2023-05-23T07:29:44.459Z,16.13
2023-05-23T07:32:14.185Z,13.20
2023-05-23T07:34:45.518Z,12.33
2023-05-23T07:37:13.835Z,11.73
2023-05-23T07:39:43.248Z,12.97
2023-05-23T07:42:11.606Z,11.53
2023-05-23T07:44:42.886Z,12.23
2023-05-23T07:47:11.301Z,13.10
2023-05-23T07:49:40.949Z,12.27
2023-05-23T07:52:09.268Z,11.57
2023-05-23T07:54:37.627Z,11.73
2023-05-23T07:57:07.405Z,12.60
2023-05-23T07:59:36.131Z,11.47
2023-05-23T08:02:04.753Z,12.93
2023-05-23T08:04:36.821Z,11.60
2023-05-23T08:07:08.441Z,12.37
2023-05-23T08:09:36.978Z,12.27
2023-05-23T08:12:06.068Z,12.07
2023-05-23T08:14:49.036Z,12.23
2023-05-23T08:17:18.876Z,11.63
2023-05-23T08:19:47.615Z,11.17
2023-05-23T08:22:18.533Z,11.43
2023-05-23T08:24:49.643Z,11.90
2023-05-23T08:27:18.073Z,11.70
2023-05-23T08:29:46.523Z,12.17
2023-05-23T08:32:15.027Z,11.57
2023-05-23T08:34:43.576Z,12.13
2023-05-23T08:37:11.891Z,11.80
2023-05-23T08:39:41.621Z,11.27
2023-05-23T08:42:10.048Z,11.53
2023-05-23T08:44:40.679Z,10.60
2023-05-23T08:47:10.242Z,10.67
2023-05-23T08:49:39.865Z,10.37
2023-05-23T08:52:13.733Z,10.43
2023-05-23T08:54:44.356Z,9.57
2023-05-23T08:57:13.116Z,9.70
2023-05-23T08:59:42.154Z,9.33
2023-05-23T09:02:13.108Z,10.37
2023-05-23T09:04:41.508Z,9.57
2023-05-23T09:07:11.757Z,9.27
2023-05-23T09:09:40.427Z,9.73
2023-05-23T09:12:10.332Z,9.30
2023-05-23T09:14:38.677Z,9.73
2023-05-23T09:17:07.076Z,8.50
2023-05-23T09:19:42.174Z,8.97
2023-05-23T09:22:10.519Z,9.70
2023-05-23T09:24:40.168Z,9.50
2023-05-23T09:27:13.374Z,8.60
2023-05-23T09:29:41.736Z,9.27
2023-05-23T09:32:14.316Z,9.40
2023-05-23T09:34:43.517Z,10.17
2023-05-23T09:37:19.302Z,9.03
2023-05-23T09:39:49.333Z,9.43
2023-05-23T09:42:23.090Z,8.80
2023-05-23T09:44:51.585Z,8.23
2023-05-23T09:47:20.307Z,8.30
2023-05-23T09:49:48.986Z,8.87
2023-05-23T09:52:17.313Z,9.23
2023-05-23T09:54:49.389Z,7.83
2023-05-23T09:57:18.145Z,8.03
2023-05-23T09:59:54.745Z,8.60
2023-05-23T10:02:55.430Z,7.90
2023-05-23T10:05:36.376Z,8.07
2023-05-23T10:08:10.780Z,8.43
2023-05-23T10:11:41.689Z,8.07
2023-05-23T10:14:11.777Z,7.93
2023-05-23T10:16:51.625Z,8.17
2023-05-23T10:19:25.975Z,7.20
2023-05-23T10:22:02.731Z,8.03
2023-05-23T10:24:31.587Z,8.03
2023-05-23T10:27:00.142Z,7.78
2023-05-23T10:29:31.832Z,8.38
2023-05-23T10:32:03.036Z,7.85
2023-05-23T10:34:39.318Z,7.60
2023-05-23T10:37:09.352Z,7.93
2023-05-23T10:39:58.652Z,9.23
2023-05-23T10:42:40.041Z,8.67
2023-05-23T10:45:19.629Z,8.80
2023-05-23T10:47:52.481Z,8.10
2023-05-23T10:50:34.023Z,8.93
2023-05-23T10:53:04.117Z,8.93
2023-05-23T10:55:37.210Z,8.77
2023-05-23T10:58:14.082Z,8.90
2023-05-23T11:00:54.332Z,9.07
2023-05-23T11:03:39.024Z,8.73
2023-05-23T11:06:08.181Z,8.50
2023-05-23T11:08:48.542Z,9.13
2023-05-23T11:11:17.663Z,9.00
2023-05-23T11:14:02.493Z,9.07
2023-05-23T11:16:32.903Z,8.23
2023-05-23T11:19:28.253Z,8.27
2023-05-23T11:22:02.596Z,8.90
2023-05-23T11:24:52.166Z,7.47
2023-05-23T11:27:28.609Z,9.00
2023-05-23T11:30:07.965Z,8.43
2023-05-23T11:32:37.430Z,8.90
2023-05-23T11:35:10.017Z,8.03
2023-05-23T11:37:40.315Z,8.03
2023-05-23T11:40:30.000Z,9.30
2023-05-23T11:42:58.465Z,9.40
2023-05-23T11:45:28.557Z,8.30
2023-05-23T11:47:57.065Z,12.00
2023-05-23T11:50:26.909Z,8.03
2023-05-23T11:52:57.076Z,7.80
2023-05-23T11:55:25.625Z,8.23
2023-05-23T11:57:57.520Z,9.10
2023-05-23T12:00:25.986Z,9.23
2023-05-23T12:02:54.492Z,9.07
2023-05-23T12:05:22.966Z,9.07
2023-05-23T12:07:52.800Z,8.97
2023-05-23T12:10:22.328Z,8.33
2023-05-23T12:12:53.517Z,7.87
2023-05-23T12:15:28.131Z,8.33
2023-05-23T12:17:57.786Z,7.90
2023-05-23T12:20:27.731Z,8.20
2023-05-23T12:22:58.714Z,9.33
2023-05-23T12:25:27.223Z,7.97
2023-05-23T12:27:56.367Z,8.53
2023-05-23T12:30:25.162Z,8.77
2023-05-23T12:32:53.786Z,8.57
2023-05-23T12:35:22.209Z,8.50
2023-05-23T12:37:50.886Z,8.13
2023-05-23T12:40:21.760Z,11.50
2023-05-23T12:42:54.507Z,11.93
2023-05-23T12:45:25.199Z,10.33
2023-05-23T12:47:54.361Z,7.33
2023-05-23T12:50:23.018Z,8.20
2023-05-23T12:52:51.345Z,8.00
2023-05-23T12:55:21.303Z,8.60
2023-05-23T12:57:49.690Z,7.93
2023-05-23T13:00:19.551Z,9.43
2023-05-23T13:02:48.021Z,9.27
2023-05-23T13:05:16.475Z,8.27
2023-05-23T13:07:45.245Z,8.10
2023-05-23T13:10:13.950Z,9.40
2023-05-23T13:12:43.893Z,7.53
2023-05-23T13:15:13.267Z,7.13
2023-05-23T13:17:41.819Z,8.93
2023-05-23T13:20:14.406Z,8.40
2023-05-23T13:22:42.974Z,7.60
2023-05-23T13:25:12.376Z,8.30
2023-05-23T13:27:40.751Z,7.33
2023-05-23T13:30:11.823Z,7.30
2023-05-23T13:32:40.235Z,8.17
2023-05-23T13:35:09.953Z,7.47
2023-05-23T13:37:39.043Z,8.27
2023-05-23T13:40:09.121Z,8.87
2023-05-23T13:42:37.561Z,7.07
2023-05-23T13:45:07.568Z,7.67
2023-05-23T13:47:37.793Z,6.67
2023-05-23T13:50:08.476Z,6.60
2023-05-23T13:52:37.108Z,7.20
2023-05-23T13:55:06.826Z,7.63
2023-05-23T13:57:35.287Z,7.23
2023-05-23T14:00:03.858Z,7.10
2023-05-23T14:02:32.995Z,7.20
2023-05-23T14:05:02.893Z,8.63
2023-05-23T14:07:31.384Z,7.13
2023-05-23T14:09:59.870Z,7.60
2023-05-23T14:12:28.374Z,8.37
2023-05-23T14:14:56.712Z,7.10
2023-05-23T14:17:25.407Z,7.03
2023-05-23T14:19:53.879Z,7.30
2023-05-23T14:22:23.781Z,7.17
2023-05-23T14:24:52.293Z,7.57
2023-05-23T14:27:20.731Z,6.97
2023-05-23T14:29:49.890Z,6.87
2023-05-23T14:32:18.438Z,7.37
2023-05-23T14:34:46.848Z,8.27
2023-05-23T14:37:15.221Z,7.70
2023-05-23T14:39:46.839Z,9.13
2023-05-23T14:42:15.295Z,7.43
2023-05-23T14:44:43.745Z,7.20
2023-05-23T14:47:12.177Z,10.17
2023-05-23T14:49:40.682Z,8.30
2023-05-23T14:52:09.186Z,7.77
2023-05-23T14:54:37.631Z,6.37
2023-05-23T14:57:08.257Z,7.03
2023-05-23T14:59:37.081Z,6.40
2023-05-23T15:02:07.344Z,6.70
2023-05-23T15:04:37.264Z,6.43
2023-05-23T15:07:06.164Z,6.70
2023-05-23T15:09:34.573Z,9.73
2023-05-23T15:12:04.822Z,5.73
2023-05-23T15:14:34.585Z,6.90
2023-05-23T15:17:08.048Z,6.23
2023-05-23T15:19:37.160Z,6.00
2023-05-23T15:22:06.512Z,6.63
2023-05-23T15:24:40.782Z,5.57
2023-05-23T15:27:20.197Z,5.27
2023-05-23T15:29:50.666Z,6.07
2023-05-23T15:32:19.217Z,5.83
2023-05-23T15:34:47.746Z,5.47
2023-05-23T15:37:16.821Z,5.33
2023-05-23T15:39:45.351Z,6.97
2023-05-23T15:42:13.790Z,5.07
2023-05-23T15:44:42.243Z,6.10
2023-05-23T15:47:12.102Z,4.27
2023-05-23T15:49:40.534Z,4.47
2023-05-23T15:52:09.089Z,4.93
2023-05-23T15:54:40.206Z,5.00
2023-05-23T15:57:08.647Z,4.20
2023-05-23T15:59:38.033Z,4.37
2023-05-23T16:02:06.920Z,6.93
2023-05-23T16:04:37.089Z,6.10
2023-05-23T16:07:06.605Z,6.07
2023-05-23T16:09:35.029Z,3.77
2023-05-23T16:12:03.473Z,4.43
2023-05-23T16:14:32.024Z,4.40
2023-05-23T16:17:04.837Z,4.37
2023-05-23T16:19:35.906Z,4.87
2023-05-23T16:22:06.518Z,4.07
2023-05-23T16:24:34.999Z,3.57
2023-05-23T16:27:04.029Z,3.73
2023-05-23T16:29:35.516Z,4.53
2023-05-23T16:32:04.010Z,3.97
2023-05-23T16:34:32.484Z,3.17
2023-05-23T16:37:01.024Z,3.40
2023-05-23T16:39:30.765Z,5.03
2023-05-23T16:42:00.444Z,3.60
2023-05-23T16:44:29.256Z,3.67
2023-05-23T16:46:57.784Z,3.97
2023-05-23T16:49:26.238Z,3.53
2023-05-23T16:51:54.654Z,3.47
2023-05-23T16:54:22.999Z,3.50
2023-05-23T16:56:52.797Z,4.63
2023-05-23T16:59:21.287Z,3.73
2023-05-23T17:01:49.710Z,5.70
2023-05-23T17:04:20.389Z,3.40
2023-05-23T17:06:48.984Z,3.40
2023-05-23T17:09:18.034Z,3.53
2023-05-23T17:11:46.487Z,2.53
2023-05-23T17:14:16.363Z,2.77
2023-05-23T17:16:44.833Z,3.97
2023-05-23T17:19:20.850Z,3.03
2023-05-23T17:21:49.703Z,2.57
2023-05-23T17:24:18.130Z,2.67
2023-05-23T17:26:46.525Z,3.03
2023-05-23T17:29:17.427Z,2.80
2023-05-23T17:31:45.959Z,4.67
2023-05-23T17:34:14.448Z,2.77
2023-05-23T17:36:42.863Z,2.50
2023-05-23T17:39:11.229Z,2.57
2023-05-23T17:41:39.839Z,2.63
2023-05-23T17:44:08.845Z,2.80
2023-05-23T17:46:38.690Z,2.33
2023-05-23T17:49:07.209Z,2.50
2023-05-23T17:51:36.367Z,2.50
2023-05-23T17:54:05.115Z,2.53
2023-05-23T17:56:33.583Z,2.60
2023-05-23T17:59:05.286Z,2.97
2023-05-23T18:01:34.606Z,2.27
2023-05-23T18:04:04.558Z,2.40
2023-05-23T18:06:33.235Z,2.13
2023-05-23T18:09:01.690Z,4.10
2023-05-23T18:11:30.425Z,3.97
2023-05-23T18:13:58.759Z,2.50
2023-05-23T18:16:27.554Z,3.00
2023-05-23T18:18:57.310Z,4.60
2023-05-23T18:21:28.838Z,2.67
2023-05-23T18:23:57.631Z,2.40
2023-05-23T18:26:26.068Z,2.80
2023-05-23T18:28:54.746Z,2.30
2023-05-23T18:31:23.199Z,2.50
2023-05-23T18:33:51.772Z,2.60
2023-05-23T18:36:20.352Z,2.70
2023-05-23T18:38:50.279Z,2.50
2023-05-23T18:41:18.826Z,2.93
2023-05-23T18:43:47.216Z,2.57
2023-05-23T18:46:15.853Z,2.67
2023-05-23T18:48:44.703Z,4.40
2023-05-23T18:51:13.404Z,2.77
2023-05-23T18:53:43.256Z,2.63
2023-05-23T18:56:13.129Z,3.20
2023-05-23T18:58:41.591Z,4.63
2023-05-23T19:01:10.014Z,2.83
2023-05-23T19:03:38.505Z,5.23
2023-05-23T19:06:08.044Z,4.23
2023-05-23T19:08:36.543Z,3.07
2023-05-23T19:11:05.982Z,2.87
2023-05-23T19:13:35.836Z,3.40
2023-05-23T19:16:05.566Z,3.03
2023-05-23T19:18:34.001Z,2.97
2023-05-23T19:21:02.387Z,3.67
2023-05-23T19:23:30.857Z,3.07
2023-05-23T19:25:59.265Z,3.27
2023-05-23T19:28:27.681Z,3.17
2023-05-23T19:30:57.462Z,2.87
2023-05-23T19:33:25.971Z,3.00
2023-05-23T19:35:55.006Z,3.97
2023-05-23T19:38:23.409Z,3.53
2023-05-23T19:40:51.907Z,3.70
2023-05-23T19:43:20.479Z,3.07
2023-05-23T19:45:48.940Z,3.53
2023-05-23T19:48:18.847Z,3.30
2023-05-23T19:50:47.656Z,3.50
2023-05-23T19:53:16.946Z,3.30
2023-05-23T19:55:45.655Z,4.43
2023-05-23T19:58:14.129Z,4.53
2023-05-23T20:00:42.834Z,3.53
2023-05-23T20:03:13.154Z,3.27
2023-05-23T20:05:43.217Z,5.53
2023-05-23T20:08:11.754Z,4.07
2023-05-23T20:10:40.557Z,4.00
2023-05-23T20:13:09.130Z,3.80
2023-05-23T20:15:40.036Z,4.30
2023-05-23T20:18:09.215Z,4.53
2023-05-23T20:20:37.608Z,3.80
2023-05-23T20:23:07.606Z,4.23
2023-05-23T20:25:36.026Z,3.77
2023-05-23T20:28:04.446Z,4.17
2023-05-23T20:30:32.874Z,3.70
2023-05-23T20:33:01.657Z,3.67
2023-05-23T20:35:30.063Z,4.50
2023-05-23T20:37:58.684Z,3.53
2023-05-23T20:40:29.764Z,3.77
2023-05-23T20:43:04.717Z,3.77
2023-05-23T20:45:33.397Z,4.10
2023-05-23T20:48:04.738Z,4.07
2023-05-23T20:50:33.876Z,4.10
2023-05-23T20:53:02.673Z,4.37
2023-05-23T20:55:34.891Z,5.43
2023-05-23T20:58:03.407Z,4.33
2023-05-23T21:00:31.900Z,4.37
2023-05-23T21:03:00.377Z,5.13
2023-05-23T21:05:28.989Z,4.03
2023-05-23T21:07:57.406Z,3.80
2023-05-23T21:10:26.439Z,4.53
2023-05-23T21:12:56.226Z,3.70
2023-05-23T21:15:24.855Z,5.50
2023-05-23T21:17:53.579Z,3.67
2023-05-23T21:20:22.756Z,4.30
2023-05-23T21:22:51.185Z,3.50
2023-05-23T21:25:19.736Z,3.87
2023-05-23T21:27:48.145Z,3.80
2023-05-23T21:30:18.048Z,3.30
2023-05-23T21:32:46.564Z,3.83
2023-05-23T21:35:15.013Z,4.03
2023-05-23T21:37:43.418Z,5.63
2023-05-23T21:40:12.554Z,4.00
2023-05-23T21:42:40.953Z,4.20
2023-05-23T21:45:10.810Z,3.93
2023-05-23T21:47:43.465Z,3.73
2023-05-23T21:50:17.384Z,3.90
2023-05-23T21:52:45.863Z,3.73
2023-05-23T21:55:14.255Z,3.90
2023-05-23T21:57:47.456Z,4.33
2023-05-23T22:00:19.146Z,3.83
2023-05-23T22:02:48.996Z,3.87
2023-05-23T22:05:17.543Z,3.87
2023-05-23T22:07:51.364Z,5.77
2023-05-23T22:10:19.934Z,3.23
2023-05-23T22:12:48.316Z,3.73
2023-05-23T22:15:16.632Z,4.63
2023-05-23T22:17:47.653Z,2.63
2023-05-23T22:20:17.683Z,4.07
2023-05-23T22:22:46.269Z,3.60
2023-05-23T22:25:14.680Z,5.60
2023-05-23T22:27:43.109Z,3.60
2023-05-23T22:30:14.865Z,3.60
2023-05-23T22:32:43.306Z,3.20
2023-05-23T22:35:11.911Z,3.60
2023-05-23T22:37:41.813Z,3.17
2023-05-23T22:40:11.168Z,3.50
2023-05-23T22:42:40.040Z,3.27
2023-05-23T22:45:10.287Z,3.50
2023-05-23T22:47:40.501Z,3.40
2023-05-23T22:50:10.452Z,2.83
2023-05-23T22:52:38.798Z,4.57
2023-05-23T22:55:12.634Z,3.23
2023-05-23T22:57:41.065Z,3.80
2023-05-23T23:00:11.709Z,3.53
2023-05-23T23:02:40.275Z,4.50
2023-05-23T23:05:11.876Z,3.80
2023-05-23T23:07:40.393Z,5.17
2023-05-23T23:10:11.186Z,3.37
2023-05-23T23:12:41.846Z,4.30
2023-05-23T23:15:14.220Z,3.50
2023-05-23T23:17:42.722Z,3.70
2023-05-23T23:20:12.664Z,4.77
2023-05-23T23:22:41.366Z,4.57
2023-05-23T23:25:11.964Z,4.40
2023-05-23T23:27:41.027Z,4.23
2023-05-23T23:30:10.936Z,4.60
2023-05-23T23:32:39.373Z,4.33
2023-05-23T23:35:11.332Z,3.83
2023-05-23T23:37:39.723Z,4.33
2023-05-23T23:40:11.191Z,4.20
2023-05-23T23:42:39.668Z,5.33
2023-05-23T23:45:09.415Z,4.70
2023-05-23T23:47:37.784Z,4.40
2023-05-23T23:50:07.694Z,4.27
2023-05-23T23:52:37.290Z,4.83
2023-05-23T23:55:06.584Z,4.30
2023-05-23T23:57:36.380Z,4.27
